Kiruna

Airport
ICAO code: 
ESNQ
Summary
ICAO Region: 
EUR
Territory: 
Location: 
Kiruna,
Elevation: 
1508 ft
Coordinates: 
Aerial View: 
67° 49' 19.195" N, 20° 20' 12.479" E
Metar
Observation
ESNQ 281020Z 31014KT CAVOK M06/M13 Q1000
Station
Kiruna Airport
Date/Time
2022-01-28 10:20:00
Wind direction
310°
Wind speed
14 kts
Lowest cloud amount
clouds and visibility OK
Temperature
-6°C
Dew point
-13°C
Humidity
57%
QNH
1000 hPa
Weather condition
n/a

Description

Kiruna Airport is the northernmost airport in Sweden. The airport lies around 10 km from the town centre of Kiruna.

Climatology

Subarctic climate (Köppen climate classification Dfc) - long, usually very cold winters, and short, cool to mild summers.

Runways

Designator Length Width Surface Rops
3/21 2502 45 ASP Yes/Yes
Airport map: 
Aerial View: 

Accidents and Serious Incidents at or in the vicinity of ESNQ

SKYbrary Partners:

Safety knowledge contributed by: